createdAt,value
2023-07-06T00:01:06.709Z,11.65
2023-07-06T00:03:33.910Z,10.07
2023-07-06T00:06:01.890Z,10.48
2023-07-06T00:08:30.255Z,13.75
2023-07-06T00:10:57.323Z,12.13
2023-07-06T00:13:24.812Z,11.07
2023-07-06T00:15:52.137Z,12.13
2023-07-06T00:18:22.419Z,11.23
2023-07-06T00:20:51.004Z,14.68
2023-07-06T00:23:18.826Z,13.77
2023-07-06T00:25:47.011Z,11.18
2023-07-06T00:28:15.437Z,11.23
2023-07-06T00:30:45.441Z,11.45
2023-07-06T00:33:14.680Z,11.07
2023-07-06T00:35:42.290Z,12.02
2023-07-06T00:38:13.306Z,11.05
2023-07-06T00:40:42.049Z,11.10
2023-07-06T00:43:16.722Z,13.23
2023-07-06T00:45:45.970Z,11.20
2023-07-06T00:48:27.964Z,11.77
2023-07-06T00:51:02.390Z,12.48
2023-07-06T00:53:33.925Z,11.50
2023-07-06T00:56:02.158Z,11.82
2023-07-06T00:58:37.386Z,11.77
2023-07-06T01:03:45.579Z,10.77
2023-07-06T01:06:20.523Z,11.63
2023-07-06T01:08:50.093Z,12.05
2023-07-06T01:11:18.231Z,11.50
2023-07-06T01:13:54.235Z,12.25
2023-07-06T01:17:04.364Z,12.57
2023-07-06T01:20:15.837Z,11.60
2023-07-06T01:23:07.711Z,11.30
2023-07-06T01:26:07.131Z,10.93
2023-07-06T01:28:49.315Z,11.10
2023-07-06T01:31:40.688Z,12.15
2023-07-06T01:34:46.797Z,12.13
2023-07-06T01:37:36.036Z,12.90
2023-07-06T01:40:10.968Z,11.52
2023-07-06T01:42:41.905Z,13.48
2023-07-06T01:45:17.588Z,12.10
2023-07-06T01:47:51.098Z,11.93
2023-07-06T01:50:23.522Z,12.40
2023-07-06T01:52:58.861Z,12.10
2023-07-06T01:55:37.306Z,11.82
2023-07-06T01:58:25.120Z,12.60
2023-07-06T02:01:18.204Z,12.15
2023-07-06T02:03:46.046Z,11.57
2023-07-06T02:06:14.333Z,11.48
2023-07-06T02:08:44.124Z,12.90
2023-07-06T02:11:12.556Z,13.90
2023-07-06T02:13:39.776Z,12.38
2023-07-06T02:16:08.894Z,12.73
2023-07-06T02:18:36.601Z,12.05
2023-07-06T02:21:04.863Z,13.43
2023-07-06T02:23:33.952Z,13.68
2023-07-06T02:26:01.119Z,14.23
2023-07-06T02:28:28.932Z,12.30
2023-07-06T02:30:56.317Z,12.38
2023-07-06T02:33:23.553Z,12.98
2023-07-06T02:35:50.678Z,13.27
2023-07-06T02:38:19.483Z,13.10
2023-07-06T02:40:47.595Z,12.55
2023-07-06T02:43:14.738Z,12.63
2023-07-06T02:45:41.846Z,14.55
2023-07-06T02:48:08.946Z,13.23
2023-07-06T02:50:38.028Z,14.57
2023-07-06T02:53:05.527Z,13.23
2023-07-06T02:55:33.713Z,12.15
2023-07-06T02:58:00.796Z,12.82
2023-07-06T03:00:27.863Z,11.77
2023-07-06T03:02:54.982Z,11.60
2023-07-06T03:05:24.608Z,12.90
2023-07-06T03:07:56.090Z,12.10
2023-07-06T03:10:25.969Z,11.73
2023-07-06T03:12:53.454Z,12.25
2023-07-06T03:15:21.027Z,13.82
2023-07-06T03:17:50.429Z,12.18
2023-07-06T03:20:24.129Z,12.45
2023-07-06T03:22:53.903Z,12.85
2023-07-06T03:25:28.276Z,14.15
2023-07-06T03:27:56.140Z,14.82
2023-07-06T03:30:30.716Z,16.05
2023-07-06T03:33:00.567Z,12.95
2023-07-06T03:35:29.652Z,12.48
2023-07-06T03:38:00.378Z,14.57
2023-07-06T03:40:30.638Z,13.43
2023-07-06T03:42:59.360Z,12.55
2023-07-06T03:45:26.641Z,14.20
2023-07-06T03:47:54.060Z,12.40
2023-07-06T03:50:24.362Z,14.35
2023-07-06T03:52:51.813Z,13.68
2023-07-06T03:55:22.385Z,13.02
2023-07-06T03:58:03.538Z,11.43
2023-07-06T04:00:32.331Z,13.02
2023-07-06T04:03:08.343Z,11.95
2023-07-06T04:05:39.546Z,11.70
2023-07-06T04:08:12.863Z,11.45
2023-07-06T04:10:41.508Z,11.30
2023-07-06T04:13:11.228Z,12.57
2023-07-06T04:15:41.471Z,12.15
2023-07-06T04:18:08.936Z,11.98
2023-07-06T04:20:36.191Z,13.48
2023-07-06T04:23:04.823Z,13.35
2023-07-06T04:25:35.025Z,16.20
2023-07-06T04:28:08.241Z,14.23
2023-07-06T04:30:37.445Z,11.88
2023-07-06T04:33:05.903Z,12.48
2023-07-06T04:35:33.286Z,12.82
2023-07-06T04:38:01.223Z,12.88
2023-07-06T04:40:29.266Z,14.75
2023-07-06T04:42:56.611Z,19.88
2023-07-06T04:45:26.178Z,14.18
2023-07-06T04:47:55.323Z,13.52
2023-07-06T04:50:24.048Z,16.08
2023-07-06T04:52:57.045Z,19.00
2023-07-06T04:55:26.975Z,12.48
2023-07-06T04:57:57.291Z,14.48
2023-07-06T05:00:31.931Z,13.02
2023-07-06T05:03:01.848Z,13.48
2023-07-06T05:05:33.435Z,12.88
2023-07-06T05:08:00.668Z,11.95
2023-07-06T05:10:28.862Z,14.02
2023-07-06T05:12:59.557Z,12.73
2023-07-06T05:15:26.848Z,12.65
2023-07-06T05:17:55.615Z,13.13
2023-07-06T05:20:23.762Z,12.90
2023-07-06T05:22:51.499Z,11.52
2023-07-06T05:25:20.473Z,11.48
2023-07-06T05:27:48.783Z,12.10
2023-07-06T05:30:18.465Z,12.52
2023-07-06T05:32:50.228Z,12.82
2023-07-06T05:35:18.941Z,12.75
2023-07-06T05:37:46.468Z,12.38
2023-07-06T05:40:13.790Z,12.50
2023-07-06T05:42:40.951Z,11.93
2023-07-06T05:45:09.556Z,13.48
2023-07-06T05:47:37.078Z,11.80
2023-07-06T05:50:04.528Z,11.82
2023-07-06T05:52:31.729Z,14.13
2023-07-06T05:54:58.827Z,13.40
2023-07-06T05:57:25.954Z,11.88
2023-07-06T05:59:55.146Z,11.35
2023-07-06T06:02:23.595Z,12.00
2023-07-06T06:04:52.973Z,11.63
2023-07-06T06:07:21.544Z,14.68
2023-07-06T06:09:49.674Z,12.98
2023-07-06T06:12:22.253Z,11.85
2023-07-06T06:14:50.697Z,12.57
2023-07-06T06:17:19.925Z,11.35
2023-07-06T06:19:48.287Z,14.20
2023-07-06T06:22:17.668Z,10.80
2023-07-06T06:24:46.114Z,9.63
2023-07-06T06:27:18.800Z,10.20
2023-07-06T06:29:46.857Z,9.50
2023-07-06T06:32:15.392Z,11.45
2023-07-06T06:34:43.425Z,10.68
2023-07-06T06:37:11.297Z,10.82
2023-07-06T06:39:40.863Z,11.18
2023-07-06T06:42:09.326Z,10.77
2023-07-06T06:44:43.140Z,8.95
2023-07-06T06:47:10.666Z,8.77
2023-07-06T06:49:38.102Z,12.10
2023-07-06T06:52:06.267Z,10.02
2023-07-06T06:54:35.300Z,12.98
2023-07-06T06:57:04.502Z,11.45
2023-07-06T06:59:34.428Z,10.90
2023-07-06T07:02:04.142Z,13.48
2023-07-06T07:04:32.591Z,10.27
2023-07-06T07:07:04.407Z,11.50
2023-07-06T07:09:31.915Z,10.57
2023-07-06T07:11:59.460Z,10.77
2023-07-06T07:14:27.141Z,12.75
2023-07-06T07:16:54.265Z,9.70
2023-07-06T07:19:22.539Z,11.85
2023-07-06T07:21:51.667Z,9.90
2023-07-06T07:24:18.917Z,11.77
2023-07-06T07:26:50.348Z,9.20
2023-07-06T07:29:17.898Z,10.98
2023-07-06T07:31:45.219Z,8.70
2023-07-06T07:34:15.850Z,10.05
2023-07-06T07:36:43.300Z,11.20
2023-07-06T07:39:11.397Z,11.30
2023-07-06T07:41:38.590Z,11.25
2023-07-06T07:44:05.670Z,12.30
2023-07-06T07:46:33.490Z,10.30
2023-07-06T07:49:02.605Z,10.35
2023-07-06T07:51:31.394Z,9.70
2023-07-06T07:53:59.424Z,10.40
2023-07-06T07:56:27.814Z,10.63
2023-07-06T07:58:55.266Z,9.82
2023-07-06T08:01:25.814Z,12.00
2023-07-06T08:03:57.241Z,10.25
2023-07-06T08:06:24.682Z,10.25
2023-07-06T08:08:52.652Z,9.43
2023-07-06T08:11:22.899Z,12.73
2023-07-06T08:13:52.351Z,9.75
2023-07-06T08:16:21.720Z,9.75
2023-07-06T08:18:50.866Z,9.63
2023-07-06T08:21:37.715Z,8.38
2023-07-06T08:24:10.462Z,10.45
2023-07-06T08:26:37.507Z,10.63
2023-07-06T08:29:05.587Z,9.77
2023-07-06T08:31:32.685Z,9.43
2023-07-06T08:34:01.944Z,8.30
2023-07-06T08:36:29.259Z,8.80
2023-07-06T08:38:57.736Z,9.25
2023-07-06T08:41:34.776Z,9.13
2023-07-06T08:44:09.107Z,10.82
2023-07-06T08:46:43.947Z,9.38
2023-07-06T08:49:19.196Z,10.18
2023-07-06T08:51:48.897Z,8.32
2023-07-06T08:54:22.977Z,8.15
2023-07-06T08:56:50.980Z,8.77
2023-07-06T08:59:37.207Z,10.55
2023-07-06T09:02:25.096Z,8.93
2023-07-06T09:04:54.465Z,8.95
2023-07-06T09:07:43.750Z,10.82
2023-07-06T09:10:23.270Z,11.73
2023-07-06T09:13:13.302Z,9.60
2023-07-06T09:15:40.416Z,9.95
2023-07-06T09:18:14.172Z,9.60
2023-07-06T09:20:41.367Z,9.57
2023-07-06T09:23:17.088Z,8.88
2023-07-06T09:25:48.218Z,7.97
2023-07-06T09:28:21.801Z,9.43
2023-07-06T09:30:52.365Z,8.93
2023-07-06T09:33:25.916Z,8.23
2023-07-06T09:35:59.268Z,8.95
2023-07-06T09:38:28.725Z,7.95
2023-07-06T09:40:57.080Z,8.65
2023-07-06T09:43:26.392Z,8.98
2023-07-06T09:45:58.207Z,9.00
2023-07-06T09:48:30.994Z,9.80
2023-07-06T09:51:14.463Z,8.75
2023-07-06T09:53:45.851Z,10.38
2023-07-06T09:56:15.967Z,8.93
2023-07-06T09:58:43.960Z,12.30
2023-07-06T10:01:18.822Z,8.68
2023-07-06T10:04:11.782Z,9.20
2023-07-06T10:07:10.210Z,10.45
2023-07-06T10:10:00.057Z,8.23
2023-07-06T10:12:40.596Z,9.38
2023-07-06T10:15:27.336Z,8.40
2023-07-06T10:18:08.571Z,8.88
2023-07-06T10:20:45.081Z,8.82
2023-07-06T10:23:34.069Z,11.65
2023-07-06T10:26:10.224Z,8.70
2023-07-06T10:28:48.404Z,9.95
2023-07-06T10:31:19.953Z,9.70
2023-07-06T10:33:58.518Z,10.90
2023-07-06T10:36:33.378Z,8.45
2023-07-06T10:39:11.853Z,9.00
2023-07-06T10:41:44.586Z,10.77
2023-07-06T10:44:42.124Z,9.40
2023-07-06T10:47:41.665Z,10.40
2023-07-06T10:50:09.038Z,10.65
2023-07-06T10:52:39.644Z,10.60
2023-07-06T10:55:27.087Z,9.82
2023-07-06T10:57:58.893Z,8.80
2023-07-06T11:00:36.965Z,8.73
2023-07-06T11:03:05.518Z,8.98
2023-07-06T11:05:38.123Z,8.65
2023-07-06T11:08:12.243Z,8.80
2023-07-06T11:10:50.400Z,8.65
2023-07-06T11:13:22.013Z,8.82
2023-07-06T11:15:50.110Z,8.25
2023-07-06T11:18:23.916Z,9.20
2023-07-06T11:21:32.564Z,8.85
2023-07-06T11:24:08.083Z,8.90
2023-07-06T11:26:51.733Z,9.13
2023-07-06T11:29:29.964Z,9.70
2023-07-06T11:32:49.099Z,9.95
2023-07-06T11:35:28.542Z,9.07
2023-07-06T11:38:13.873Z,9.38
2023-07-06T11:40:49.556Z,8.43
2023-07-06T11:43:25.575Z,10.00
2023-07-06T11:46:18.083Z,9.50
2023-07-06T11:49:06.933Z,8.95
2023-07-06T11:51:38.666Z,9.63
2023-07-06T11:54:20.803Z,10.32
2023-07-06T11:57:11.841Z,9.52
2023-07-06T11:59:41.581Z,10.05
2023-07-06T12:02:18.986Z,9.52
2023-07-06T12:04:47.803Z,9.02
2023-07-06T12:07:27.416Z,9.10
2023-07-06T12:09:54.557Z,9.70
2023-07-06T12:12:24.646Z,9.60
2023-07-06T12:14:58.257Z,8.93
2023-07-06T12:17:25.682Z,10.32
2023-07-06T12:19:59.758Z,9.70
2023-07-06T12:22:27.338Z,12.93
2023-07-06T12:24:57.241Z,9.65
2023-07-06T12:27:27.265Z,10.27
2023-07-06T12:30:07.786Z,10.13
2023-07-06T12:32:36.785Z,9.73
2023-07-06T12:35:06.111Z,10.07
2023-07-06T12:37:33.283Z,10.52
2023-07-06T12:40:00.744Z,9.80
2023-07-06T12:42:27.923Z,10.80
2023-07-06T12:44:56.142Z,11.80
2023-07-06T12:47:39.064Z,9.60
2023-07-06T12:50:17.506Z,9.30
2023-07-06T12:52:46.610Z,9.50
2023-07-06T12:55:17.835Z,9.88
2023-07-06T12:57:47.380Z,11.80
2023-07-06T13:00:23.870Z,10.57
2023-07-06T13:05:25.346Z,7.97
2023-07-06T13:07:53.448Z,8.15
2023-07-06T13:10:33.341Z,9.95
2023-07-06T13:13:01.822Z,8.68
2023-07-06T13:15:39.427Z,10.00
2023-07-06T13:18:15.989Z,8.65
2023-07-06T13:20:43.575Z,9.57
2023-07-06T13:23:12.144Z,9.63
2023-07-06T13:25:45.679Z,8.65
2023-07-06T13:28:20.843Z,9.18
2023-07-06T13:30:53.367Z,12.27
2023-07-06T13:33:20.885Z,8.18
2023-07-06T13:35:48.654Z,7.85
2023-07-06T13:38:16.275Z,7.97
2023-07-06T13:40:44.628Z,11.88
2023-07-06T13:43:16.936Z,9.02
2023-07-06T13:45:44.755Z,9.45
2023-07-06T13:48:13.815Z,10.48
2023-07-06T13:50:47.017Z,12.38
2023-07-06T13:53:14.579Z,12.63
2023-07-06T13:55:49.444Z,10.15
2023-07-06T13:58:18.190Z,11.82
2023-07-06T14:00:49.063Z,10.90
2023-07-06T14:03:19.698Z,10.40
2023-07-06T14:05:47.754Z,10.23
2023-07-06T14:08:14.944Z,12.13
2023-07-06T14:10:42.625Z,11.02
2023-07-06T14:13:10.514Z,11.55
2023-07-06T14:15:38.297Z,12.40
2023-07-06T14:18:09.052Z,11.18
2023-07-06T14:20:42.047Z,10.98
2023-07-06T14:23:15.641Z,10.77
2023-07-06T14:25:44.035Z,11.30
2023-07-06T14:28:12.114Z,12.68
2023-07-06T14:30:39.300Z,9.63
2023-07-06T14:33:08.672Z,14.73
2023-07-06T14:35:37.065Z,11.80
2023-07-06T14:38:07.330Z,13.27
2023-07-06T14:40:38.971Z,10.65
2023-07-06T14:43:07.060Z,10.70
2023-07-06T14:45:35.306Z,11.13
2023-07-06T14:48:03.105Z,10.77
2023-07-06T14:50:30.224Z,11.30
2023-07-06T14:52:57.491Z,14.73
2023-07-06T14:55:25.296Z,11.15
2023-07-06T14:57:52.813Z,11.82
2023-07-06T15:00:20.232Z,11.00
2023-07-06T15:02:50.791Z,10.25
2023-07-06T15:05:18.008Z,10.60
2023-07-06T15:07:45.535Z,10.73
2023-07-06T15:10:15.723Z,11.02
2023-07-06T15:12:43.896Z,12.77
2023-07-06T15:15:12.408Z,11.63
2023-07-06T15:17:39.861Z,11.98
2023-07-06T15:20:12.099Z,10.20
2023-07-06T15:22:39.946Z,10.43
2023-07-06T15:25:07.730Z,9.73
2023-07-06T15:27:34.871Z,10.10
2023-07-06T15:30:02.016Z,9.68
2023-07-06T15:32:34.381Z,11.63
2023-07-06T15:35:02.386Z,11.68
2023-07-06T15:37:33.875Z,11.18
2023-07-06T15:40:02.739Z,9.80
2023-07-06T15:42:32.458Z,11.68
2023-07-06T15:44:59.802Z,12.32
2023-07-06T15:47:27.733Z,9.35
2023-07-06T15:49:55.551Z,12.50
2023-07-06T15:52:22.938Z,8.85
2023-07-06T15:54:50.012Z,9.82
2023-07-06T15:57:17.096Z,8.75
2023-07-06T15:59:46.669Z,10.90
2023-07-06T16:02:19.170Z,9.95
2023-07-06T16:04:47.542Z,9.10
2023-07-06T16:07:14.617Z,9.52
2023-07-06T16:09:41.744Z,9.50
2023-07-06T16:12:09.758Z,14.02
2023-07-06T16:14:37.130Z,13.50
2023-07-06T16:17:04.658Z,10.50
2023-07-06T16:19:31.824Z,11.50
2023-07-06T16:21:59.074Z,10.63
2023-07-06T16:24:26.161Z,11.43
2023-07-06T16:26:53.224Z,9.77
2023-07-06T16:29:20.330Z,9.52
2023-07-06T16:31:47.496Z,10.02
2023-07-06T16:34:15.239Z,10.35
2023-07-06T16:36:42.329Z,9.00
2023-07-06T16:39:09.740Z,8.88
2023-07-06T16:41:36.808Z,10.98
2023-07-06T16:44:04.096Z,8.90
2023-07-06T16:46:31.280Z,10.05
2023-07-06T16:48:59.104Z,10.25
2023-07-06T16:51:26.478Z,9.85
2023-07-06T16:53:53.636Z,10.80
2023-07-06T16:56:21.130Z,9.05
2023-07-06T16:58:48.407Z,10.98
2023-07-06T17:01:15.637Z,9.45
2023-07-06T17:03:42.851Z,10.90
2023-07-06T17:06:10.900Z,10.75
2023-07-06T17:08:38.160Z,10.48
2023-07-06T17:11:08.130Z,10.85
2023-07-06T17:13:36.900Z,10.52
2023-07-06T17:16:05.009Z,10.05
2023-07-06T17:18:32.484Z,10.13
2023-07-06T17:21:07.392Z,9.98
2023-07-06T17:23:35.353Z,11.00
2023-07-06T17:26:03.504Z,9.13
2023-07-06T17:28:32.044Z,9.13
2023-07-06T17:31:10.640Z,11.50
2023-07-06T17:33:38.369Z,9.45
2023-07-06T17:36:07.057Z,15.15
2023-07-06T17:38:35.166Z,11.68
2023-07-06T17:41:09.687Z,12.18
2023-07-06T17:43:38.339Z,10.52
2023-07-06T17:46:06.330Z,11.32
2023-07-06T17:48:34.783Z,9.77
2023-07-06T17:51:04.095Z,12.00
2023-07-06T17:53:31.855Z,9.57
2023-07-06T17:55:59.742Z,8.85
2023-07-06T17:58:27.334Z,9.10
2023-07-06T18:00:55.544Z,9.27
2023-07-06T18:03:23.711Z,9.77
2023-07-06T18:05:51.390Z,12.52
2023-07-06T18:08:19.033Z,9.93
2023-07-06T18:10:47.284Z,10.48
2023-07-06T18:13:15.370Z,11.15
2023-07-06T18:15:42.602Z,10.25
2023-07-06T18:18:09.778Z,9.95
2023-07-06T18:20:37.208Z,11.82
2023-07-06T18:23:04.563Z,10.30
2023-07-06T18:25:31.703Z,10.60
2023-07-06T18:27:58.847Z,11.00
2023-07-06T18:30:25.924Z,9.85
2023-07-06T18:32:53.106Z,11.10
2023-07-06T18:35:20.315Z,10.20
2023-07-06T18:37:47.464Z,10.68
2023-07-06T18:40:15.193Z,12.00
2023-07-06T18:42:42.446Z,11.88
2023-07-06T18:45:10.480Z,10.77
2023-07-06T18:47:38.409Z,10.20
2023-07-06T18:50:07.263Z,11.18
2023-07-06T18:52:37.026Z,13.85
2023-07-06T18:55:04.813Z,10.40
2023-07-06T18:57:32.020Z,11.10
2023-07-06T18:59:59.418Z,14.75
2023-07-06T19:02:26.675Z,17.38
2023-07-06T19:04:54.027Z,12.52
2023-07-06T19:07:21.255Z,12.63
2023-07-06T19:09:49.327Z,14.23
2023-07-06T19:12:17.120Z,11.70
2023-07-06T19:14:44.492Z,13.85
2023-07-06T19:17:12.218Z,12.73
2023-07-06T19:19:39.434Z,13.95
2023-07-06T19:22:07.780Z,11.68
2023-07-06T19:24:35.182Z,15.95
2023-07-06T19:27:02.520Z,12.10
2023-07-06T19:29:29.709Z,12.45
2023-07-06T19:32:07.457Z,12.55
2023-07-06T19:34:43.507Z,15.10
2023-07-06T19:37:10.592Z,15.25
2023-07-06T19:39:38.240Z,13.88
2023-07-06T19:42:05.585Z,15.77
2023-07-06T19:44:33.299Z,13.25
2023-07-06T19:47:00.551Z,13.93
2023-07-06T19:49:27.636Z,13.77
2023-07-06T19:51:56.506Z,13.75
2023-07-06T19:54:23.714Z,17.92
2023-07-06T19:56:50.817Z,12.50
2023-07-06T19:59:17.959Z,15.13
2023-07-06T20:01:45.163Z,14.32
2023-07-06T20:04:12.838Z,17.90
2023-07-06T20:06:41.637Z,11.75
2023-07-06T20:09:08.720Z,12.75
2023-07-06T20:11:36.322Z,14.60
2023-07-06T20:14:03.832Z,11.23
2023-07-06T20:16:31.129Z,15.27
2023-07-06T20:18:58.274Z,13.50
2023-07-06T20:21:25.521Z,14.10
2023-07-06T20:23:52.650Z,13.68
2023-07-06T20:26:19.762Z,13.25
2023-07-06T20:28:46.847Z,12.43
2023-07-06T20:31:13.937Z,13.70
2023-07-06T20:33:41.114Z,15.88
2023-07-06T20:36:08.749Z,13.20
2023-07-06T20:38:36.227Z,12.68
2023-07-06T20:41:03.580Z,15.38
2023-07-06T20:43:32.152Z,13.65
2023-07-06T20:46:02.192Z,11.55
2023-07-06T20:48:29.381Z,13.73
2023-07-06T20:50:59.179Z,14.15
2023-07-06T20:53:26.643Z,14.40
2023-07-06T20:55:54.420Z,12.90
2023-07-06T20:58:21.527Z,14.45
2023-07-06T21:00:48.614Z,14.00
2023-07-06T21:03:15.668Z,11.73
2023-07-06T21:05:42.971Z,17.00
2023-07-06T21:08:10.010Z,12.25
2023-07-06T21:10:37.190Z,13.30
2023-07-06T21:13:04.653Z,13.82
2023-07-06T21:15:31.803Z,13.07
2023-07-06T21:17:59.095Z,12.23
2023-07-06T21:20:26.208Z,12.05
2023-07-06T21:22:53.377Z,12.07
2023-07-06T21:25:20.654Z,10.95
2023-07-06T21:27:47.733Z,10.90
2023-07-06T21:30:14.818Z,10.27
2023-07-06T21:32:44.547Z,14.15
2023-07-06T21:35:11.904Z,10.52
2023-07-06T21:37:38.995Z,11.55
2023-07-06T21:40:06.809Z,13.13
2023-07-06T21:42:33.890Z,14.50
2023-07-06T21:45:01.563Z,12.00
2023-07-06T21:47:32.267Z,11.55
2023-07-06T21:49:59.318Z,10.43
2023-07-06T21:52:26.402Z,10.88
2023-07-06T21:54:53.529Z,10.82
2023-07-06T21:57:20.549Z,12.25
2023-07-06T21:59:47.826Z,11.52
2023-07-06T22:02:14.925Z,12.57
2023-07-06T22:04:42.023Z,13.48
2023-07-06T22:07:09.080Z,12.45
2023-07-06T22:09:36.129Z,12.77
2023-07-06T22:12:03.287Z,11.75
2023-07-06T22:14:30.423Z,10.93
2023-07-06T22:16:57.531Z,12.35
2023-07-06T22:19:24.616Z,10.52
2023-07-06T22:21:51.667Z,11.63
2023-07-06T22:24:19.049Z,12.82
2023-07-06T22:26:46.174Z,11.82
2023-07-06T22:29:13.306Z,11.20
2023-07-06T22:31:40.522Z,11.70
2023-07-06T22:34:09.297Z,11.05
2023-07-06T22:36:36.355Z,11.63
2023-07-06T22:39:03.621Z,11.60
2023-07-06T22:41:31.137Z,14.02
2023-07-06T22:44:00.913Z,12.20
2023-07-06T22:46:28.428Z,13.30
2023-07-06T22:48:58.425Z,13.07
2023-07-06T22:51:25.542Z,12.10
2023-07-06T22:53:52.627Z,11.98
2023-07-06T22:56:19.704Z,13.57
2023-07-06T22:58:46.908Z,12.07
2023-07-06T23:01:22.656Z,11.45
2023-07-06T23:03:50.110Z,12.23
2023-07-06T23:06:17.438Z,17.67
2023-07-06T23:08:44.690Z,11.90
2023-07-06T23:11:12.723Z,12.93
2023-07-06T23:13:39.934Z,13.10
2023-07-06T23:16:07.109Z,11.82
2023-07-06T23:18:34.567Z,12.60
2023-07-06T23:21:02.899Z,13.43
2023-07-06T23:23:30.887Z,12.10
2023-07-06T23:25:58.071Z,12.40
2023-07-06T23:28:25.221Z,12.70
2023-07-06T23:30:53.750Z,12.65
2023-07-06T23:33:21.739Z,12.73
2023-07-06T23:35:51.366Z,13.57
2023-07-06T23:38:21.307Z,13.02
2023-07-06T23:40:49.051Z,12.60
2023-07-06T23:43:16.316Z,12.35
2023-07-06T23:45:43.572Z,12.95
2023-07-06T23:48:10.667Z,12.90
2023-07-06T23:50:37.767Z,12.18
2023-07-06T23:53:04.987Z,12.13
2023-07-06T23:55:32.216Z,16.30
2023-07-06T23:58:00.402Z,14.43
